Time;durP1;ratioP1;P1;durP2;ratioP2;P2;SDS_P1;SDS_P2;PMS_P1;PMS_P2;Temp;Humidity;BMP_temperature;BMP_pressure;BME280_temperature;BME280_humidity;BME280_pressure;Samples;Min_cycle;Max_cycle;Signal;HPM_P1;HPM_P2
2023/05/13 00:01:42;;;;;;;1.58;1.17;;;15.30;1.00;;;;;;5033504;28;20026;-67
2023/05/13 00:04:08;;;;;;;1.65;1.10;;;15.30;1.00;;;;;;5034730;28;20467;-67
2023/05/13 00:06:34;;;;;;;1.25;1.13;;;15.30;1.00;;;;;;5034715;28;20389;-67
2023/05/13 00:09:00;;;;;;;1.52;0.88;;;15.30;1.00;;;;;;5034687;28;20022;-67
2023/05/13 00:11:26;;;;;;;3.33;1.20;;;15.30;1.00;;;;;;5034479;28;20124;-66
2023/05/13 00:13:52;;;;;;;1.70;0.80;;;15.30;1.00;;;;;;5034501;28;20557;-67
2023/05/13 00:16:18;;;;;;;3.28;0.90;;;15.30;1.00;;;;;;5034162;28;20029;-67
2023/05/13 00:18:43;;;;;;;1.33;1.17;;;15.30;1.00;;;;;;5034313;28;20083;-67
2023/05/13 00:21:09;;;;;;;1.52;0.95;;;15.30;1.00;;;;;;5034334;28;20472;-67
2023/05/13 00:23:35;;;;;;;1.13;0.90;;;15.30;1.00;;;;;;5034234;28;20063;-66
2023/05/13 00:26:00;;;;;;;2.53;1.20;;;15.30;1.00;;;;;;5034473;28;20499;-68
2023/05/13 00:28:26;;;;;;;0.85;0.82;;;15.20;1.00;;;;;;5034089;28;20538;-67
2023/05/13 00:30:52;;;;;;;1.10;1.00;;;15.20;1.00;;;;;;5034151;28;20108;-67
2023/05/13 00:33:17;;;;;;;0.82;0.82;;;15.20;1.00;;;;;;5034112;28;20368;-67
2023/05/13 00:35:43;;;;;;;1.52;0.70;;;15.20;1.00;;;;;;5033936;28;20032;-67
2023/05/13 00:38:09;;;;;;;1.48;1.00;;;15.30;1.00;;;;;;5034154;28;20380;-67
2023/05/13 00:40:41;;;;;;;1.23;0.85;;;15.20;1.00;;;;;;5034158;28;20021;-67
2023/05/13 00:43:07;;;;;;;4.28;1.10;;;15.20;1.00;;;;;;5033827;28;20099;-67
2023/05/13 00:45:36;;;;;;;1.25;0.90;;;15.20;1.00;;;;;;5033751;28;20029;-67
2023/05/13 00:48:04;;;;;;;1.83;0.57;;;15.10;1.00;;;;;;5033694;28;20049;-67
2023/05/13 00:50:30;;;;;;;3.15;0.88;;;15.10;1.00;;;;;;5033707;28;20032;-67
2023/05/13 00:52:57;;;;;;;2.92;0.70;;;15.10;1.00;;;;;;5032515;28;20029;-67
2023/05/13 00:55:22;;;;;;;1.50;0.90;;;15.10;1.00;;;;;;5021960;28;20472;-67
2023/05/13 00:57:48;;;;;;;1.10;0.73;;;15.10;1.00;;;;;;5032285;28;20032;-67
2023/05/13 01:00:14;;;;;;;1.58;1.20;;;15.00;1.00;;;;;;5033679;28;20075;-67
2023/05/13 01:02:46;;;;;;;2.17;1.08;;;15.10;1.00;;;;;;5033820;28;20065;-67
2023/05/13 01:05:18;;;;;;;2.25;1.00;;;15.10;1.00;;;;;;5023861;28;20025;-67
2023/05/13 01:08:13;;;;;;;1.45;0.90;;;15.10;1.00;;;;;;5031114;28;20112;-67
2023/05/13 01:10:58;;;;;;;1.85;0.85;;;15.00;1.00;;;;;;5014425;28;20149;-67
2023/05/13 01:13:26;;;;;;;;;;;15.00;1.00;;;;;;5033973;28;20365;-67
2023/05/13 01:16:08;;;;;;;1.52;1.08;;;15.00;1.00;;;;;;5034529;28;19913;-67
2023/05/13 01:18:39;;;;;;;1.48;1.00;;;15.00;1.00;;;;;;5043499;28;20499;-67
2023/05/13 01:21:07;;;;;;;1.27;0.90;;;15.00;1.00;;;;;;5032419;28;20029;-67
2023/05/13 01:23:33;;;;;;;3.67;1.10;;;15.00;1.00;;;;;;5031666;28;20044;-67
2023/05/13 01:25:58;;;;;;;1.83;1.40;;;15.00;1.00;;;;;;5045665;28;20021;-68
2023/05/13 01:28:24;;;;;;;1.52;0.98;;;15.00;1.00;;;;;;5031430;28;20116;-67
2023/05/13 01:30:50;;;;;;;2.17;1.08;;;15.00;1.00;;;;;;5031996;28;20388;-67
2023/05/13 01:33:16;;;;;;;1.13;1.10;;;15.00;1.00;;;;;;5031841;28;20087;-67
2023/05/13 01:35:44;;;;;;;1.00;1.00;;;15.00;1.00;;;;;;5032218;28;20033;-67
2023/05/13 01:38:11;;;;;;;1.35;1.20;;;14.90;1.00;;;;;;5030923;28;20079;-67
2023/05/13 01:40:37;;;;;;;1.50;1.30;;;15.00;1.00;;;;;;5031578;28;20156;-67
2023/05/13 01:43:03;;;;;;;3.63;1.80;;;15.00;1.00;;;;;;5031563;28;20128;-67
2023/05/13 01:45:29;;;;;;;2.17;1.40;;;15.00;1.00;;;;;;5045110;28;20546;-67
2023/05/13 01:47:55;;;;;;;3.78;1.40;;;15.00;1.00;;;;;;5047249;28;20041;-67
2023/05/13 01:50:21;;;;;;;2.25;1.80;;;15.00;1.00;;;;;;5032706;28;20100;-67
2023/05/13 01:52:46;;;;;;;2.30;1.70;;;15.00;1.00;;;;;;5046086;28;20037;-67
2023/05/13 01:55:12;;;;;;;1.55;1.45;;;15.00;1.00;;;;;;5032150;28;20144;-67
2023/05/13 01:57:38;;;;;;;2.28;1.50;;;15.00;1.00;;;;;;5032068;28;20033;-67
2023/05/13 02:00:05;;;;;;;2.28;1.75;;;15.10;1.00;;;;;;5042326;28;20021;-67
2023/05/13 02:02:30;;;;;;;1.70;1.30;;;15.00;1.00;;;;;;5035730;28;20113;-67
2023/05/13 02:04:56;;;;;;;1.77;1.58;;;15.00;1.00;;;;;;5031736;28;20452;-67
2023/05/13 02:07:22;;;;;;;1.75;1.48;;;15.00;1.00;;;;;;5030478;28;20562;-67
2023/05/13 02:09:47;;;;;;;3.13;1.63;;;14.90;1.00;;;;;;5030400;28;20025;-67
2023/05/13 02:12:13;;;;;;;1.67;1.50;;;15.00;1.00;;;;;;5031507;28;20078;-67
2023/05/13 02:14:38;;;;;;;1.77;1.35;;;14.90;1.00;;;;;;5032156;28;20451;-67
2023/05/13 02:17:04;;;;;;;3.08;1.48;;;14.90;1.00;;;;;;5041530;28;20561;-67
2023/05/13 02:19:30;;;;;;;1.50;1.40;;;14.90;1.00;;;;;;5036175;28;20025;-67
2023/05/13 02:21:56;;;;;;;1.92;1.23;;;14.80;1.00;;;;;;5031872;28;20033;-67
2023/05/13 02:24:21;;;;;;;2.72;1.55;;;14.80;1.00;;;;;;5030581;28;20061;-67
2023/05/13 02:26:47;;;;;;;1.80;1.17;;;14.80;1.00;;;;;;5031720;28;20384;-68
2023/05/13 02:29:13;;;;;;;3.05;1.08;;;14.80;1.00;;;;;;5032121;28;20036;-67
2023/05/13 02:31:41;;;;;;;3.50;1.15;;;14.80;1.00;;;;;;5031709;28;20048;-67
2023/05/13 02:34:07;;;;;;;2.17;1.10;;;14.80;1.00;;;;;;5031804;28;20021;-68
2023/05/13 02:36:33;;;;;;;1.88;1.20;;;14.70;1.00;;;;;;5031634;28;20430;-67
2023/05/13 02:38:58;;;;;;;1.45;1.10;;;14.80;1.00;;;;;;5030472;28;20053;-67
2023/05/13 02:41:24;;;;;;;1.75;1.40;;;14.80;1.00;;;;;;5035184;28;20052;-67
2023/05/13 02:43:50;;;;;;;1.38;1.17;;;14.70;1.00;;;;;;5022050;28;20064;-68
2023/05/13 02:46:15;;;;;;;1.95;1.10;;;14.80;1.00;;;;;;5035677;28;20567;-67
2023/05/13 02:48:41;;;;;;;1.20;1.02;;;14.70;1.00;;;;;;5035266;28;20490;-68
2023/05/13 02:51:08;;;;;;;2.08;1.10;;;14.80;1.00;;;;;;5044368;28;20099;-67
2023/05/13 02:53:56;;;;;;;1.08;0.98;;;14.70;1.00;;;;;;5039008;28;20045;-67
2023/05/13 02:56:21;;;;;;;1.15;1.05;;;14.70;1.00;;;;;;5034017;28;20045;-67
2023/05/13 02:58:47;;;;;;;2.13;1.00;;;14.70;1.00;;;;;;5033817;28;20026;-67
2023/05/13 03:01:12;;;;;;;2.28;1.02;;;14.70;1.00;;;;;;5035177;28;20033;-67
2023/05/13 03:03:38;;;;;;;2.17;1.20;;;14.70;1.00;;;;;;5035276;28;20033;-67
2023/05/13 03:06:05;;;;;;;1.70;0.90;;;14.70;1.00;;;;;;5021155;28;20022;-67
2023/05/13 03:08:30;;;;;;;3.58;1.20;;;14.70;1.00;;;;;;5033538;28;20472;-68
2023/05/13 03:10:57;;;;;;;2.40;1.05;;;14.70;1.00;;;;;;5034877;28;20017;-68
2023/05/13 03:13:23;;;;;;;2.15;1.30;;;14.70;1.00;;;;;;5035396;28;20064;-67
2023/05/13 03:15:49;;;;;;;2.20;1.40;;;14.70;1.00;;;;;;5034809;28;20068;-67
2023/05/13 03:18:14;;;;;;;2.03;1.42;;;14.70;1.00;;;;;;5034895;28;20072;-67
2023/05/13 03:20:40;;;;;;;1.40;1.20;;;14.70;1.00;;;;;;5034740;28;20033;-68
2023/05/13 03:23:06;;;;;;;1.58;1.27;;;14.70;1.00;;;;;;5034777;28;20021;-68
2023/05/13 03:25:31;;;;;;;1.83;1.73;;;14.70;1.00;;;;;;5034709;28;20477;-68
2023/05/13 03:27:57;;;;;;;1.60;1.10;;;14.70;1.00;;;;;;5034806;28;20426;-68
2023/05/13 03:30:22;;;;;;;2.90;1.58;;;14.70;1.00;;;;;;5034654;28;20065;-68
2023/05/13 03:32:48;;;;;;;3.13;1.73;;;14.70;1.00;;;;;;5034538;28;20022;-68
2023/05/13 03:35:14;;;;;;;2.75;1.58;;;14.70;1.00;;;;;;5034663;28;20024;-68
2023/05/13 03:37:39;;;;;;;2.00;1.38;;;14.80;1.00;;;;;;5033006;28;20487;-68
2023/05/13 03:40:06;;;;;;;2.88;1.98;;;14.80;1.00;;;;;;5034873;28;20057;-68
2023/05/13 03:42:31;;;;;;;2.47;2.20;;;14.70;1.00;;;;;;5034352;28;20091;-68
2023/05/13 03:44:57;;;;;;;2.88;2.50;;;14.70;1.00;;;;;;5033704;28;20471;-68
2023/05/13 03:47:23;;;;;;;2.63;2.40;;;14.70;1.00;;;;;;5034248;28;20438;-68
2023/05/13 03:49:49;;;;;;;2.60;2.40;;;14.70;1.00;;;;;;5033860;28;20151;-68
2023/05/13 03:52:15;;;;;;;3.28;2.83;;;14.70;1.00;;;;;;5047679;28;20021;-68
2023/05/13 03:54:41;;;;;;;3.28;3.08;;;14.70;1.00;;;;;;5034192;28;20029;-68
2023/05/13 03:57:07;;;;;;;4.03;3.17;;;14.70;1.00;;;;;;5034341;28;20037;-68
2023/05/13 03:59:33;;;;;;;4.88;3.70;;;14.60;1.00;;;;;;5032705;28;20120;-68
2023/05/13 04:01:59;;;;;;;3.25;2.95;;;14.60;1.00;;;;;;5034390;28;20116;-68
2023/05/13 04:04:25;;;;;;;3.08;2.78;;;14.60;1.00;;;;;;5034630;28;20022;-68
2023/05/13 04:06:50;;;;;;;4.43;2.50;;;14.60;1.00;;;;;;5033756;28;20067;-68
2023/05/13 04:09:16;;;;;;;3.65;3.00;;;14.60;1.00;;;;;;5034732;28;20467;-68
2023/05/13 04:11:42;;;;;;;5.18;3.42;;;14.70;1.00;;;;;;5026593;28;20112;-68
2023/05/13 04:14:07;;;;;;;3.30;3.00;;;14.70;1.00;;;;;;5034783;28;20068;-68
2023/05/13 04:16:33;;;;;;;3.90;2.85;;;14.70;1.00;;;;;;5034739;28;20026;-68
2023/05/13 04:18:59;;;;;;;3.75;2.85;;;14.70;1.00;;;;;;5034369;28;20029;-68
2023/05/13 04:21:24;;;;;;;4.68;2.47;;;14.70;1.00;;;;;;5026202;28;20452;-68
2023/05/13 04:23:50;;;;;;;2.53;2.28;;;14.70;1.00;;;;;;5034510;28;20037;-68
2023/05/13 04:26:16;;;;;;;3.10;2.80;;;14.70;1.00;;;;;;5034281;28;20053;-68
2023/05/13 04:28:41;;;;;;;3.50;3.03;;;14.70;1.00;;;;;;5034136;28;20168;-68
2023/05/13 04:31:07;;;;;;;3.88;2.85;;;14.80;1.00;;;;;;5033799;28;20036;-68
2023/05/13 04:33:32;;;;;;;2.92;2.53;;;14.70;1.00;;;;;;5032786;28;20475;-68
2023/05/13 04:35:58;;;;;;;3.05;2.83;;;14.70;1.00;;;;;;5034251;28;20055;-68
2023/05/13 04:38:24;;;;;;;3.30;3.00;;;14.70;1.00;;;;;;5033974;28;20029;-68
2023/05/13 04:40:50;;;;;;;3.20;2.92;;;14.70;1.00;;;;;;5034204;28;20026;-68
2023/05/13 04:43:16;;;;;;;4.80;3.50;;;14.70;1.00;;;;;;5033725;28;20423;-68
2023/05/13 04:45:41;;;;;;;4.05;2.95;;;14.80;1.00;;;;;;5034105;28;20038;-68
2023/05/13 04:48:07;;;;;;;4.40;2.85;;;14.70;1.00;;;;;;5033579;28;20049;-68
2023/05/13 04:50:33;;;;;;;9.25;3.40;;;14.70;1.00;;;;;;5037877;28;20029;-68
2023/05/13 04:52:58;;;;;;;4.47;3.50;;;14.70;1.00;;;;;;5038533;28;20467;-68
2023/05/13 04:55:24;;;;;;;3.35;2.85;;;14.70;1.00;;;;;;5032394;28;20059;-68
2023/05/13 04:57:50;;;;;;;3.47;3.00;;;14.70;1.00;;;;;;5033745;28;20037;-68
2023/05/13 05:00:16;;;;;;;3.63;3.33;;;14.70;1.00;;;;;;5033805;28;20025;-68
2023/05/13 05:02:41;;;;;;;4.93;3.40;;;14.70;1.00;;;;;;5033508;28;20061;-68
2023/05/13 05:05:07;;;;;;;4.07;3.67;;;14.80;1.00;;;;;;5033334;28;20029;-68
2023/05/13 05:07:33;;;;;;;6.00;3.53;;;14.80;1.00;;;;;;5033490;28;20164;-69
2023/05/13 05:09:59;;;;;;;5.70;3.88;;;14.80;1.00;;;;;;5033452;28;20493;-68
2023/05/13 05:12:24;;;;;;;6.32;4.40;;;14.70;1.00;;;;;;5033642;28;20029;-69
2023/05/13 05:14:50;;;;;;;4.97;4.47;;;14.80;1.00;;;;;;5032337;28;20065;-68
2023/05/13 05:17:16;;;;;;;8.85;4.40;;;14.70;1.00;;;;;;5033231;28;20029;-69
2023/05/13 05:19:41;;;;;;;6.15;4.43;;;14.70;1.00;;;;;;5033543;28;20037;-69
2023/05/13 05:22:07;;;;;;;4.47;3.90;;;14.70;1.00;;;;;;5033582;28;20025;-69
2023/05/13 05:24:33;;;;;;;5.45;4.75;;;14.80;1.00;;;;;;5033426;28;20036;-69
2023/05/13 05:26:58;;;;;;;16.92;5.53;;;14.80;1.00;;;;;;5033155;28;20356;-68
2023/05/13 05:29:24;;;;;;;6.68;5.53;;;14.80;1.00;;;;;;5033066;28;20398;-68
2023/05/13 05:31:50;;;;;;;5.63;5.03;;;14.80;1.00;;;;;;5033133;28;20064;-67
2023/05/13 05:34:16;;;;;;;5.28;4.78;;;14.70;1.00;;;;;;5033236;28;20095;-68
2023/05/13 05:36:41;;;;;;;6.63;5.43;;;14.80;1.00;;;;;;5032899;28;20030;-68
2023/05/13 05:39:07;;;;;;;7.38;5.05;;;14.80;1.00;;;;;;5033114;28;20025;-68
2023/05/13 05:41:32;;;;;;;7.53;6.72;;;14.80;1.00;;;;;;5032897;28;20038;-68
2023/05/13 05:43:58;;;;;;;6.93;6.07;;;14.80;1.00;;;;;;5032949;28;20037;-67
2023/05/13 05:46:24;;;;;;;6.53;5.78;;;14.80;1.00;;;;;;5033236;28;20026;-67
2023/05/13 05:48:50;;;;;;;9.73;6.20;;;14.80;1.00;;;;;;5032832;28;20487;-67
2023/05/13 05:51:15;;;;;;;7.80;6.72;;;14.80;1.00;;;;;;5039894;28;20421;-67
2023/05/13 05:53:41;;;;;;;9.38;7.13;;;14.80;1.00;;;;;;5028871;28;20037;-68
2023/05/13 05:56:07;;;;;;;8.40;7.43;;;14.80;1.00;;;;;;5032994;28;20018;-68
2023/05/13 05:58:33;;;;;;;10.45;6.75;;;14.80;1.00;;;;;;5045616;28;20021;-67
2023/05/13 06:00:59;;;;;;;9.80;7.90;;;14.80;1.00;;;;;;5017781;28;20018;-67
2023/05/13 06:03:26;;;;;;;8.63;7.82;;;14.90;1.00;;;;;;5032997;28;20380;-68
2023/05/13 06:05:52;;;;;;;8.68;7.88;;;14.90;1.00;;;;;;5032937;28;20029;-68
2023/05/13 06:08:18;;;;;;;9.93;8.93;;;14.90;1.00;;;;;;5031312;28;20034;-67
2023/05/13 06:10:44;;;;;;;8.63;7.80;;;14.90;1.00;;;;;;5032839;28;20097;-67
2023/05/13 06:13:09;;;;;;;10.35;8.23;;;14.90;1.00;;;;;;5032644;28;20111;-68
2023/05/13 06:15:37;;;;;;;11.27;8.82;;;14.90;1.00;;;;;;5035105;28;20147;-67
2023/05/13 06:18:04;;;;;;;10.65;9.65;;;15.00;1.00;;;;;;5035381;28;20025;-67
2023/05/13 06:20:30;;;;;;;9.80;8.82;;;15.00;1.00;;;;;;5036727;28;20503;-67
2023/05/13 06:22:56;;;;;;;11.80;10.70;;;15.00;1.00;;;;;;5036466;28;20049;-67
2023/05/13 06:25:22;;;;;;;10.05;9.15;;;15.00;1.00;;;;;;5036427;28;20053;-67
2023/05/13 06:27:47;;;;;;;11.23;10.13;;;14.90;1.00;;;;;;5036602;28;20048;-67
2023/05/13 06:30:13;;;;;;;11.57;10.43;;;15.00;1.00;;;;;;5036244;28;20030;-67
2023/05/13 06:32:39;;;;;;;12.77;11.43;;;15.00;1.00;;;;;;5036076;28;20061;-68
2023/05/13 06:35:04;;;;;;;14.23;10.95;;;15.00;1.00;;;;;;5035013;28;20037;-67
2023/05/13 06:37:30;;;;;;;11.25;10.05;;;15.10;1.00;;;;;;5033932;28;20030;-67
2023/05/13 06:39:57;;;;;;;11.25;10.05;;;15.10;1.00;;;;;;5035633;28;20068;-67
2023/05/13 06:42:22;;;;;;;11.02;9.95;;;15.20;1.00;;;;;;5035960;28;20431;-67
2023/05/13 06:44:48;;;;;;;12.02;10.70;;;15.20;1.00;;;;;;5035939;28;20105;-67
2023/05/13 06:47:15;;;;;;;10.95;9.85;;;15.30;1.00;;;;;;5035990;28;20026;-67
2023/05/13 06:49:41;;;;;;;11.50;10.38;;;15.30;1.00;;;;;;5036119;28;20075;-67
2023/05/13 06:52:08;;;;;;;12.68;11.45;;;15.40;1.00;;;;;;5035908;28;20100;-68
2023/05/13 06:54:34;;;;;;;12.48;11.27;;;15.50;1.00;;;;;;5035827;28;20631;-67
2023/05/13 06:57:00;;;;;;;12.43;11.25;;;15.60;1.00;;;;;;5036282;28;20118;-68
2023/05/13 06:59:26;;;;;;;13.02;10.30;;;15.60;1.00;;;;;;5035855;28;20037;-69
2023/05/13 07:01:52;;;;;;;12.63;11.27;;;15.60;1.00;;;;;;5035873;28;20048;-68
2023/05/13 07:04:17;;;;;;;12.07;10.88;;;15.60;1.00;;;;;;5035667;28;20025;-68
2023/05/13 07:06:43;;;;;;;12.30;11.10;;;15.60;1.00;;;;;;5035815;28;20028;-68
2023/05/13 07:09:08;;;;;;;15.02;12.27;;;15.60;1.00;;;;;;5034178;28;20038;-68
2023/05/13 07:11:35;;;;;;;12.00;10.80;;;15.60;1.00;;;;;;5035670;28;20033;-67
2023/05/13 07:14:01;;;;;;;10.90;9.80;;;15.70;1.00;;;;;;5035615;28;20040;-68
2023/05/13 07:16:26;;;;;;;13.35;11.20;;;15.70;1.00;;;;;;5035875;28;20013;-68
2023/05/13 07:18:53;;;;;;;12.73;11.43;;;15.70;1.00;;;;;;5035828;28;20029;-68
2023/05/13 07:21:19;;;;;;;14.95;12.55;;;15.70;1.00;;;;;;5034312;28;20036;-68
2023/05/13 07:23:45;;;;;;;12.45;10.75;;;15.90;1.00;;;;;;5035426;28;20075;-68
2023/05/13 07:26:10;;;;;;;13.75;10.70;;;15.90;1.00;;;;;;5034568;28;20025;-68
2023/05/13 07:28:36;;;;;;;11.57;10.45;;;15.90;1.00;;;;;;5035273;28;20040;-68
2023/05/13 07:31:03;;;;;;;11.65;10.55;;;15.80;1.00;;;;;;5034354;28;20116;-68
2023/05/13 07:33:30;;;;;;;12.48;10.45;;;15.80;1.00;;;;;;5035450;28;20036;-68
2023/05/13 07:35:56;;;;;;;10.57;9.48;;;15.80;1.00;;;;;;5034039;28;20430;-68
2023/05/13 07:38:21;;;;;;;11.57;9.35;;;15.80;1.00;;;;;;5035171;28;20025;-68
2023/05/13 07:40:47;;;;;;;12.15;9.70;;;15.90;1.00;;;;;;5035034;28;20411;-68
2023/05/13 07:43:13;;;;;;;14.55;10.57;;;16.00;1.00;;;;;;5034679;28;20053;-69
2023/05/13 07:45:39;;;;;;;10.13;9.02;;;16.00;1.00;;;;;;5033728;28;20037;-68
2023/05/13 07:48:04;;;;;;;11.20;9.45;;;16.10;1.00;;;;;;5035259;28;20104;-68
2023/05/13 07:50:31;;;;;;;10.88;9.07;;;16.20;1.00;;;;;;5033981;28;20040;-68
2023/05/13 07:52:57;;;;;;;9.50;8.18;;;16.20;1.00;;;;;;5034952;28;20033;-68
2023/05/13 07:55:22;;;;;;;10.77;8.13;;;16.20;1.00;;;;;;5034781;28;20079;-68
2023/05/13 07:57:48;;;;;;;10.73;8.95;;;16.20;1.00;;;;;;5034947;28;20501;-69
2023/05/13 08:00:14;;;;;;;9.35;7.20;;;16.20;1.00;;;;;;5034814;28;20116;-68
2023/05/13 08:02:42;;;;;;;10.80;8.10;;;16.30;1.00;;;;;;5024037;28;20052;-68
2023/05/13 08:05:09;;;;;;;10.90;9.05;;;16.40;1.00;;;;;;5034933;28;20025;-68
2023/05/13 08:07:35;;;;;;;9.82;8.65;;;16.30;1.00;;;;;;5031611;28;20029;-68
2023/05/13 08:10:00;;;;;;;12.45;9.13;;;16.40;1.00;;;;;;5034807;28;20167;-68
2023/05/13 08:12:26;;;;;;;9.07;7.88;;;16.60;1.00;;;;;;5034559;28;20033;-68
2023/05/13 08:14:52;;;;;;;13.80;9.20;;;16.70;1.00;;;;;;5034297;28;20041;-68
2023/05/13 08:17:18;;;;;;;9.57;7.22;;;16.70;1.00;;;;;;5033307;28;20398;-68
2023/05/13 08:19:44;;;;;;;9.55;7.65;;;16.60;1.00;;;;;;5033848;28;20037;-68
2023/05/13 08:22:10;;;;;;;10.00;7.05;;;16.60;1.00;;;;;;5025526;28;20092;-68
2023/05/13 08:24:36;;;;;;;7.25;6.55;;;16.60;1.00;;;;;;5032666;28;20483;-68
2023/05/13 08:27:02;;;;;;;9.57;7.00;;;16.70;1.00;;;;;;5034484;28;20035;-63
2023/05/13 08:29:28;;;;;;;9.88;7.05;;;16.80;1.00;;;;;;5032839;28;20041;-63
2023/05/13 08:31:54;;;;;;;10.18;7.07;;;16.90;1.00;;;;;;5034443;28;20032;-63
2023/05/13 08:34:20;;;;;;;12.35;7.10;;;16.90;1.00;;;;;;5026971;28;20030;-77
2023/05/13 08:36:45;;;;;;;10.23;7.05;;;17.00;1.00;;;;;;5047024;28;20025;-76
2023/05/13 08:39:12;;;;;;;9.95;7.10;;;17.00;1.00;;;;;;5030596;28;20492;-75
2023/05/13 08:41:39;;;;;;;8.13;7.32;;;17.00;1.00;;;;;;5027790;28;20610;-74
2023/05/13 08:44:06;;;;;;;8.65;6.43;;;17.00;1.00;;;;;;5033878;28;20026;-74
2023/05/13 08:46:35;;;;;;;10.65;6.55;;;17.10;1.00;;;;;;5034212;28;20030;-74
2023/05/13 08:49:01;;;;;;;8.90;7.30;;;17.10;1.00;;;;;;5033695;28;20044;-77
2023/05/13 08:51:27;;;;;;;12.48;7.32;;;17.10;1.00;;;;;;5034150;28;20368;-61
2023/05/13 08:53:55;;;;;;;13.98;6.90;;;17.00;1.00;;;;;;5032038;28;20033;-62
2023/05/13 08:56:27;;;;;;;9.18;6.78;;;17.10;1.00;;;;;;5033463;28;20101;-61
2023/05/13 08:58:53;;;;;;;9.82;7.95;;;17.20;1.00;;;;;;5033856;28;20452;-62
2023/05/13 09:01:20;;;;;;;9.55;6.53;;;17.30;1.00;;;;;;5028922;28;20032;-63
2023/05/13 09:03:58;;;;;;;8.05;6.68;;;17.40;1.00;;;;;;5015211;28;20083;-63
2023/05/13 09:06:24;;;;;;;11.07;7.15;;;17.50;1.00;;;;;;5033612;28;20076;-64
2023/05/13 09:08:50;;;;;;;8.13;7.05;;;17.40;1.00;;;;;;5033369;28;20041;-64
2023/05/13 09:11:16;;;;;;;8.15;7.40;;;17.50;1.00;;;;;;5033464;28;20105;-64
2023/05/13 09:13:43;;;;;;;9.43;8.23;;;17.40;1.00;;;;;;5033383;28;20213;-64
2023/05/13 09:16:11;;;;;;;9.57;8.13;;;17.50;1.00;;;;;;5027675;28;20025;-63
2023/05/13 09:18:38;;;;;;;9.68;7.65;;;17.40;1.00;;;;;;5033583;28;20029;-64
2023/05/13 09:21:24;;;;;;;8.60;7.72;;;17.30;1.00;;;;;;5032975;28;20022;-64
2023/05/13 09:24:00;;;;;;;7.65;6.25;;;17.40;1.00;;;;;;5033504;28;20029;-65
2023/05/13 09:26:29;;;;;;;9.55;7.13;;;17.50;1.00;;;;;;5031782;28;20076;-66
2023/05/13 09:29:15;;;;;;;7.43;6.72;;;17.60;1.00;;;;;;5031803;28;20037;-66
2023/05/13 09:31:41;;;;;;;10.10;8.57;;;17.60;1.00;;;;;;5020206;28;20446;-67
2023/05/13 09:34:07;;;;;;;8.38;7.57;;;17.50;1.00;;;;;;5032348;28;20112;-66
2023/05/13 09:36:32;;;;;;;8.13;6.68;;;17.50;1.00;;;;;;5032514;28;20530;-66
2023/05/13 09:38:58;;;;;;;10.27;7.43;;;17.50;1.00;;;;;;5025219;28;20033;-66
2023/05/13 09:41:26;;;;;;;7.82;7.03;;;17.50;1.00;;;;;;5032852;28;20117;-66
2023/05/13 09:43:52;;;;;;;10.00;8.75;;;17.50;1.00;;;;;;5033153;28;20478;-66
2023/05/13 09:46:19;;;;;;;10.60;7.72;;;17.50;1.00;;;;;;5032961;28;20033;-66
2023/05/13 09:48:45;;;;;;;10.60;7.78;;;17.70;1.00;;;;;;5031557;28;20132;-66
2023/05/13 09:51:10;;;;;;;8.10;6.95;;;17.80;1.00;;;;;;5032472;28;20017;-66
2023/05/13 09:53:36;;;;;;;8.23;7.43;;;17.80;1.00;;;;;;5032799;28;20033;-66
2023/05/13 09:56:02;;;;;;;8.90;7.78;;;17.90;1.00;;;;;;5032688;28;20023;-61
2023/05/13 09:58:29;;;;;;;8.85;8.02;;;17.90;1.00;;;;;;5033161;28;20463;-61
2023/05/13 10:00:56;;;;;;;8.77;7.88;;;17.90;1.00;;;;;;5032750;28;20033;-61
2023/05/13 10:03:22;;;;;;;8.95;6.55;;;18.10;1.00;;;;;;5032404;28;20079;-61
2023/05/13 10:05:48;;;;;;;7.15;6.45;;;18.00;1.00;;;;;;5025797;28;20033;-61
2023/05/13 10:08:16;;;;;;;7.15;6.40;;;18.00;1.00;;;;;;5030629;28;20108;-56
2023/05/13 10:10:44;;;;;;;7.28;6.32;;;18.20;1.00;;;;;;5031493;28;20033;-65
2023/05/13 10:13:15;;;;;;;7.53;6.43;;;18.30;1.00;;;;;;5020207;28;20056;-65
2023/05/13 10:15:54;;;;;;;7.10;6.47;;;18.40;1.00;;;;;;5031271;28;20523;-65
2023/05/13 10:18:21;;;;;;;8.07;6.82;;;18.50;1.00;;;;;;5032647;28;20108;-65
2023/05/13 10:20:51;;;;;;;9.57;6.63;;;18.50;1.00;;;;;;5031157;28;20033;-65
2023/05/13 10:23:18;;;;;;;6.68;5.97;;;18.50;1.00;;;;;;5024557;28;20036;-65
2023/05/13 10:25:46;;;;;;;7.22;5.93;;;18.70;1.00;;;;;;5032724;28;20038;-65
2023/05/13 10:28:13;;;;;;;6.28;5.68;;;18.80;1.00;;;;;;5032326;28;20518;-65
2023/05/13 10:30:40;;;;;;;5.57;5.00;;;18.80;1.00;;;;;;5028680;28;20057;-65
2023/05/13 10:33:06;;;;;;;9.52;7.28;;;18.90;1.00;;;;;;5018151;28;20124;-65
2023/05/13 10:35:37;;;;;;;8.18;7.38;;;19.00;1.00;;;;;;5025005;28;20463;-65
2023/05/13 10:38:24;;;;;;;8.60;7.70;;;19.10;1.00;;;;;;5032595;28;20029;-65
2023/05/13 10:41:08;;;;;;;8.70;6.97;;;19.00;1.00;;;;;;5019026;28;20053;-65
2023/05/13 10:43:35;;;;;;;8.80;8.00;;;19.10;1.00;;;;;;5030655;28;20033;-65
2023/05/13 10:46:10;;;;;;;8.68;7.75;;;19.20;1.00;;;;;;5032439;28;20022;-65
2023/05/13 10:48:50;;;;;;;16.15;8.38;;;19.10;1.00;;;;;;5032248;28;20037;-65
2023/05/13 10:51:21;;;;;;;8.35;6.47;;;19.30;1.00;;;;;;5032292;28;20467;-65
2023/05/13 10:53:55;;;;;;;7.18;6.38;;;19.60;1.00;;;;;;5029343;28;20095;-65
2023/05/13 10:56:27;;;;;;;8.32;6.47;;;19.80;1.00;;;;;;5032353;28;20033;-65
2023/05/13 10:59:04;;;;;;;6.65;5.95;;;19.80;1.00;;;;;;5026674;28;20033;-66
2023/05/13 11:01:33;;;;;;;5.93;5.28;;;20.00;1.00;;;;;;5023756;28;20036;-66
2023/05/13 11:04:00;;;;;;;5.65;4.15;;;20.10;1.00;;;;;;5027320;28;20033;-65
2023/05/13 11:06:33;;;;;;;5.28;4.75;;;20.20;1.00;;;;;;5034212;28;20018;-65
2023/05/13 11:08:58;;;;;;;7.68;4.95;;;20.30;1.00;;;;;;5034387;28;20095;-65
2023/05/13 11:11:31;;;;;;;5.85;4.82;;;20.40;1.00;;;;;;5035779;28;20034;-64
2023/05/13 11:14:00;;;;;;;5.93;5.30;;;20.70;1.00;;;;;;5021937;28;20526;-64
2023/05/13 11:16:25;;;;;;;5.40;4.90;;;20.80;1.00;;;;;;5035762;28;20026;-64
2023/05/13 11:18:52;;;;;;;6.18;4.90;;;20.70;1.00;;;;;;5035896;28;20030;-64
2023/05/13 11:21:48;;;;;;;5.25;4.63;;;20.50;1.00;;;;;;5035464;28;20402;-64
2023/05/13 11:24:17;;;;;;;6.80;4.53;;;20.50;1.00;;;;;;5035105;28;20037;-65
2023/05/13 11:26:55;;;;;;;4.32;3.92;;;20.60;1.00;;;;;;5035446;28;20025;-65
2023/05/13 11:29:36;;;;;;;5.43;3.22;;;20.90;1.00;;;;;;5029001;28;20046;-65
2023/05/13 11:32:05;;;;;;;4.90;3.53;;;21.40;1.00;;;;;;5034491;28;20498;-65
2023/05/13 11:34:33;;;;;;;4.25;3.60;;;21.60;1.00;;;;;;5032557;28;20420;-65
2023/05/13 11:37:08;;;;;;;4.22;3.83;;;21.70;1.00;;;;;;5035410;28;20030;-65
2023/05/13 11:39:34;;;;;;;5.15;4.50;;;22.10;1.00;;;;;;5032549;28;20036;-65
2023/05/13 11:42:05;;;;;;;4.97;4.57;;;22.80;1.00;;;;;;5035221;28;20038;-65
2023/05/13 11:44:33;;;;;;;6.95;5.72;;;22.60;1.00;;;;;;5033888;28;20529;-65
2023/05/13 11:47:00;;;;;;;5.85;5.03;;;22.50;1.00;;;;;;5035249;28;20022;-65
2023/05/13 11:49:39;;;;;;;4.50;3.97;;;22.70;1.00;;;;;;5035037;28;20029;-65
2023/05/13 11:52:14;;;;;;;4.90;4.50;;;23.60;1.00;;;;;;5035359;28;20032;-66
2023/05/13 11:54:43;;;;;;;5.63;4.38;;;24.10;1.00;;;;;;5033794;28;20025;-65
2023/05/13 11:57:20;;;;;;;4.93;4.40;;;24.40;1.00;;;;;;5034857;28;20025;-65
2023/05/13 12:00:12;;;;;;;6.38;4.32;;;24.90;1.00;;;;;;5028729;28;20026;-65
2023/05/13 12:02:43;;;;;;;4.80;3.85;;;24.90;1.00;;;;;;5032740;28;20048;-65
2023/05/13 12:05:10;;;;;;;8.52;4.85;;;24.40;1.00;;;;;;5035008;28;20021;-65
2023/05/13 12:07:37;;;;;;;5.18;4.25;;;23.80;1.00;;;;;;5026619;28;20034;-65
2023/05/13 12:10:04;;;;;;;5.40;3.42;;;23.40;1.00;;;;;;5025718;28;20108;-65
2023/05/13 12:12:33;;;;;;;4.15;3.63;;;23.30;1.00;;;;;;5034082;28;20028;-65
2023/05/13 12:15:02;;;;;;;4.00;3.53;;;25.20;1.00;;;;;;5033342;28;20428;-65
2023/05/13 12:17:30;;;;;;;4.55;4.00;;;28.20;99.90;;;;;;5033598;28;20123;-65
2023/05/13 12:20:16;;;;;;;3.40;2.70;;;26.50;99.90;;;;;;5034498;28;20059;-65
2023/05/13 12:22:44;;;;;;;2.55;2.35;;;29.10;99.90;;;;;;5027001;28;20387;-65
2023/05/13 12:25:36;;;;;;;4.38;2.70;;;33.10;99.90;;;;;;5027230;28;20034;-65
2023/05/13 12:28:25;;;;;;;4.07;2.60;;;31.80;99.90;;;;;;5023063;28;20037;-65
2023/05/13 12:30:55;;;;;;;3.65;3.30;;;28.20;99.90;;;;;;5028160;28;20507;-65
2023/05/13 12:33:27;;;;;;;3.20;2.90;;;26.20;99.90;;;;;;5034266;28;20635;-65
2023/05/13 12:36:13;;;;;;;7.53;3.58;;;25.00;1.00;;;;;;5034121;28;20033;-65
2023/05/13 12:38:39;;;;;;;4.50;2.80;;;24.20;1.00;;;;;;5034000;28;20475;-64
2023/05/13 12:41:13;;;;;;;2.65;2.45;;;24.00;1.00;;;;;;5033776;28;20087;-64
2023/05/13 12:43:40;;;;;;;3.13;2.90;;;23.70;1.00;;;;;;5034234;28;20037;-65
2023/05/13 12:46:06;;;;;;;3.88;3.17;;;23.40;1.00;;;;;;5039116;28;20026;-64
2023/05/13 12:48:32;;;;;;;3.97;3.20;;;23.00;1.00;;;;;;5029761;28;20133;-65
2023/05/13 12:50:58;;;;;;;4.13;2.92;;;22.70;1.00;;;;;;5034015;28;20025;-65
2023/05/13 12:53:24;;;;;;;2.70;2.50;;;22.50;1.00;;;;;;5033820;28;20116;-64
2023/05/13 12:55:50;;;;;;;3.67;3.03;;;22.50;1.00;;;;;;5033738;28;20021;-64
2023/05/13 12:58:16;;;;;;;3.17;2.88;;;22.30;1.00;;;;;;5032409;28;20026;-65